Valle Toledo, Valles Caldera, New Mexico Weather observations

Data are for 10 minute period ending at time listed.
 Day   Time   Solar   Ave.   Ave.  Ave.  Vector  Max.   Baro.   Total    
  of    of     Rad.   Air    Rel.  Wind   Wind   Wind  Press.  Precip.   
Year   Day            Temp.  Hum.  Speed  Dir.   Gust                    
2017   (MST)  Kw/m2    F      %     mph   deg.    mph    mb.     in.     
-------------------------------------------------------------------------
  18    7:30   0.00   22.5    90    2.7   342     6.0   728.0    0.00 
  18    7:40   0.01   23.1    89    2.4   346     4.2   728.0    0.00 
  18    7:50   0.01   23.5    88    1.1   304     3.0   727.9    0.00 
  18    8:00   0.02   23.9    88    1.5   314     3.0   727.9    0.00 
  18    8:10   0.02   24.8    86    1.0   294     3.0   727.9    0.00 
  18    8:20   0.02   25.0    83    0.6   272     3.0   727.9    0.00 
  18    8:30   0.03   24.9    82    1.9   233     4.8   727.9    0.00 
  18    8:40   0.03   24.6    83    1.7   283     4.8   727.9    0.00 
  18    8:50   0.04   25.4    82    3.2   283     6.0   727.9    0.00 
  18    9:00   0.04   26.0    80    2.4   282     4.2   727.9    0.00 
  18    9:10   0.04   27.7    77    4.4   299    11.3   727.9    0.00 
  18    9:20   0.05   27.8    76    3.2   262     5.4   727.9    0.00 
  18    9:30   0.04   27.9    76    3.2   281     5.4   727.9    0.00 
  18    9:40   0.05   29.0    73    8.9   308    15.5   727.8    0.00 
  18    9:50   0.05   29.5    70    8.1   313    16.7   727.9    0.00 
  18   10:00   0.06   30.0    69    8.8   317    14.9   727.9    0.00 
  18   10:10   0.07   30.9    67    8.7   313    14.3   727.9    0.00 
  18   10:20   0.09   32.0    64    7.2   310    13.1   727.9    0.00 
  18   10:30   0.09   32.9    62    6.8   316    12.5   727.9    0.00 
  18   10:40   0.11   33.6    61    6.4   299     9.6   727.8    0.00 
  18   10:50   0.12   32.9    61    8.0   302    12.5   727.7    0.00 
  18   11:00   0.19   34.7    58    7.3   298    11.9   727.6    0.00 
  18   11:10   0.19   37.0    53    8.1   295    12.5   727.5    0.00 
  18   11:20   0.19   35.9    54   10.5   308    17.3   727.3    0.00 
  18   11:30   0.20   37.4    50    9.6   304    13.7   727.2    0.00 
  18   11:40   0.26   38.5    50    9.5   306    14.9   727.0    0.00 
  18   11:50   0.22   38.9    48    8.7   305    16.1   726.8    0.00 
  18   12:00   0.18   37.3    51    9.0   326    13.7   726.6    0.00 
  18   12:10   0.20   37.7    50    8.8   311    14.9   726.4    0.00 
  18   12:20   0.14   36.0    54    9.6   320    14.3   726.2    0.00 
  18   12:30   0.12   34.4    56    6.8   296    13.1   726.2    0.00 
  18   12:40   0.09   34.0    57    8.8   313    13.7   726.3    0.00 
  18   12:50   0.10   33.1    59    8.1   303    13.7   726.2    0.00 
  18   13:00   0.16   33.4    57    6.6   297    10.8   726.0    0.00 
  18   13:10   0.19   36.3    50    8.6   294    14.3   726.0    0.00 
  18   13:20   0.15   33.7    55    9.6   298    15.5   725.8    0.00 
  18   13:30   0.12   33.3    56    9.7   300    14.3   725.7    0.00 
  18   13:40   0.18   35.1    54    9.8   314    14.9   725.7    0.00 
  18   13:50   0.10   35.1    54    9.2   318    14.9   725.6    0.00 
  18   14:00   0.11   33.2    57    8.9   327    16.1   725.5    0.00 
  18   14:10   0.13   35.7    52    9.1   318    14.9   725.4    0.00 
  18   14:20   0.07   32.7    58    8.4   310    13.7   725.4    0.00 
  18   14:30   0.06   31.7    61    6.5   306    10.8   725.3    0.00 
  18   14:40   0.05   30.5    64    9.0   316    14.3   725.3    0.00 
  18   14:50   0.04   30.2    65    6.8   315    11.3   725.3    0.00 
  18   15:00   0.04   29.7    66    8.6   299    12.5   725.3    0.00 
  18   15:10   0.04   29.5    66    7.6   317    12.5   725.3    0.00 
  18   15:20   0.04   29.0    67    8.1   305    12.5   725.3    0.00 
  18   15:30   0.04   28.9    67    8.9   319    14.9   725.3    0.00 
  18   15:40   0.04   28.9    67    8.1   306    12.5   725.3    0.00 
  18   15:50   0.04   28.4    68    8.8   306    13.7   725.3    0.00 
  18   16:00   0.03   28.4    68    7.1   308    11.3   725.3    0.00 
  18   16:10   0.02   27.9    69    8.1   310    13.1   725.4    0.00 
  18   16:20   0.02   27.5    71    7.5   306    11.3   725.5    0.00 
  18   16:30   0.01   27.0    70    9.9   319    14.3   725.4    0.00 
  18   16:40   0.01   26.7    70    8.8   320    13.7   725.5    0.00 
  18   16:50   0.01   26.6    71    7.8   318    12.5   725.5    0.00 
  18   17:00   0.00   26.1    72    7.4   317    11.9   725.6    0.00 
  18   17:10   0.00   25.6    72    8.4   322    13.7   725.7    0.00 
  18   17:20   0.00   25.2    72   10.2   307    16.1   725.7    0.00 
  18   17:30   0.00   24.9    72    9.7   319    19.1   725.8    0.00 
  18   17:40   0.00   24.8    73    8.0   314    12.5   725.8    0.00 
  18   17:50   0.00   24.7    74    9.1   309    14.3   725.7    0.00 
  18   18:00   0.00   24.6    74    9.6   319    13.7   725.6    0.00 
  18   18:10   0.00   24.6    75   10.5   305    16.7   725.6    0.00 
  18   18:20   0.00   24.6    77    8.8   310    14.3   725.6    0.00 
  18   18:30   0.00   24.5    76    7.9   317    13.1   725.6    0.00 
  18   18:40   0.00   24.4    74    9.3   312    14.9   725.7    0.00 
  18   18:50   0.00   24.3    75    9.8   318    17.3   725.7    0.00 
  18   19:00   0.00   24.3    74   10.4   316    16.7   725.6    0.00 
  18   19:10   0.00   24.2    75    8.8   315    14.3   725.5    0.00 
  18   19:20   0.00   24.2    75    8.8   316    13.7   725.5    0.00 
  18   19:30   0.00   24.2    75    8.9   317    15.5   725.5    0.00 
  18   19:40   0.00   24.4    76    8.1   313    11.3   725.4    0.00 
  18   19:50   0.00   24.4    77    8.7   306    12.5   725.4    0.00 
  18   20:00   0.00   24.4    78    9.8   304    16.7   725.4    0.00 
  18   20:10   0.00   24.3    78    8.4   306    16.7   725.3    0.00 
  18   20:20   0.00   24.0    78    9.8   317    17.3   725.3    0.00 
  18   20:30   0.00   23.5    77   10.1   323    16.1   725.2    0.00 
  18   20:40   0.00   23.1    77    8.7   323    11.9   725.2    0.00 
  18   20:50   0.00   22.8    76    7.8   328    13.7   725.3    0.00 
  18   21:00   0.00   22.3    77    8.7   317    12.5   725.3    0.00 
  18   21:10   0.00   21.9    78    7.3   329    13.1   725.4    0.00 
  18   21:20   0.00   22.2    77    9.3   325    17.3   725.3    0.00 
  18   21:30   0.00   22.2    77    9.2   329    14.3   725.2    0.00 
  18   21:40   0.00   22.3    78    9.5   327    14.9   725.1    0.00 
  18   21:50   0.00   22.5    78   10.2   322    18.5   725.1    0.00 
  18   22:00   0.00   22.4    77    9.8   322    18.5   725.2    0.00 
  18   22:10   0.00   22.7    76    9.8   316    16.7   725.2    0.00 
  18   22:20   0.00   22.6    77    8.6   330    11.9   725.1    0.00 
  18   22:30   0.00   22.5    78    8.5   317    15.5   725.1    0.00 
  18   22:40   0.00   22.8    76    6.4   296    11.3   725.0    0.00 
  18   22:50   0.00   22.4    76    6.4   312    10.8   725.0    0.00 
  18   23:00   0.00   22.4    77    8.2   311    16.1   724.9    0.00 
  18   23:10   0.00   22.6    76    6.7   298    15.5   724.7    0.00 
  18   23:20   0.00   22.6    77    7.1   302    13.7   724.7    0.00 
  18   23:30   0.00   22.5    78    8.3   316    11.9   724.7    0.00 
  18   23:40   0.00   22.5    77    7.3   311    14.9   724.5    0.00 
  18   23:50   0.00   22.4    76    4.8   294    12.5   724.2    0.00 
  19    0:00   0.00   22.1    75    4.2   253     7.8   724.2    0.00 
  19    0:10   0.00   22.0    73    5.7   276    10.2   724.0    0.00 
  19    0:20   0.00   22.2    71    4.0   237    10.2   723.9    0.00 
  19    0:30   0.00   22.1    70    5.2   261    13.7   723.9    0.00 
  19    0:40   0.00   22.2    71    4.7   255     9.0   723.9    0.00 
  19    0:50   0.00   22.0    73    4.2   291     7.8   723.8    0.00 
  19    1:00   0.00   21.6    72    4.2   308     8.4   723.8    0.00 
  19    1:10   0.00   21.6    74    4.3   283     9.0   723.7    0.00 
  19    1:20   0.00   21.7    75    4.9   288     9.6   723.6    0.00 
  19    1:30   0.00   22.3    75    4.7   289    14.3   723.6    0.00 
  19    1:40   0.00   22.2    76    5.2   292    12.5   723.7    0.00 
  19    1:50   0.00   22.6    75    4.7   249    10.2   723.6    0.00 
  19    2:00   0.00   22.6    76    5.2   296     9.6   723.6    0.00 
  19    2:10   0.00   23.0    76    4.5   239     9.0   723.5    0.00 
  19    2:20   0.00   23.2    76    6.7   275    16.1   723.5    0.00 
  19    2:30   0.00   23.5    76    9.1   284    22.7   723.5    0.00 
  19    2:40   0.00   23.7    77    7.8   257    16.7   723.4    0.00 
  19    2:50   0.00   23.9    76    4.8   265    10.2   723.4    0.00 
  19    3:00   0.00   23.8    76    5.4   243    11.9   723.3    0.00 
  19    3:10   0.00   23.3    75    4.0   289    11.3   723.4    0.00 
  19    3:20   0.00   23.2    76    4.5   287    10.2   723.3    0.00 
  19    3:30   0.00   23.4    75    4.9   257     7.2   723.3    0.00 
  19    3:40   0.00   23.3    75    3.3   249     5.4   723.3    0.00 
  19    3:50   0.00   22.7    75    3.4    84     7.8   723.2    0.00 
  19    4:00   0.00   23.0    74    7.1   295    14.9   723.0    0.00 
  19    4:10   0.00   23.0    73    4.4   242     9.0   722.9    0.00 
  19    4:20   0.00   23.3    72    5.6   256    12.5   722.9    0.00 
  19    4:30   0.00   23.3    71    5.8   242    12.5   722.7    0.00 
  19    4:40   0.00   23.2    71    4.6   275    10.2   722.7    0.00 
  19    4:50   0.00   23.2    70    6.9   296    16.7   722.5    0.00 
  19    5:00   0.00   23.5    68    5.4   277    10.2   722.6    0.00 
  19    5:10   0.00   23.6    66    3.2   320     8.4   722.7    0.00 
  19    5:20   0.00   23.4    66    5.2   251    11.9   722.8    0.00 
  19    5:30   0.00   23.4    66    4.1   260     9.0   722.8    0.00 
  19    5:40   0.00   22.9    67    2.4   169     5.4   722.8    0.00 
  19    5:50   0.00   22.7    67    3.9   122    10.2   722.7    0.00 
  19    6:00   0.00   22.9    67    3.3   194     9.0   722.7    0.00 
  19    6:10   0.00   23.1    66    4.2   182    11.9   722.6    0.00 
  19    6:20   0.00   23.6    65    5.1   251    11.3   722.8    0.00 
  19    6:30   0.00   23.4    66    2.8   313     5.4   722.8    0.00 
  19    6:40   0.00   23.2    65    2.7   137     5.4   722.8    0.00 
  19    6:50   0.00   22.4    67    3.0    75     4.8   722.7    0.00 
  19    7:00   0.00   22.3    67    3.1   222     7.8   722.7    0.00 
  19    7:10   0.00   22.3    66    2.8   320     7.2   722.7    0.00 
  19    7:20   0.00   22.3    66    3.5   272     6.0   722.8    0.00 

Return to Valle Toledo, Valles Caldera graphs page.


Western Regional Climate Center,wrcc@dri.edu